sensor_id;sensor_type;location;lat;lon;timestamp;temperature;humidity
6146;DHT22;3104;50.348;7.620;2023-03-01T00:01:53;0.90;99.90
6146;DHT22;3104;50.348;7.620;2023-03-01T00:04:18;0.80;99.90
6146;DHT22;3104;50.348;7.620;2023-03-01T00:06:44;0.90;99.90
6146;DHT22;3104;50.348;7.620;2023-03-01T00:09:12;0.90;99.90
6146;DHT22;3104;50.348;7.620;2023-03-01T00:11:38;1.20;99.90
6146;DHT22;3104;50.348;7.620;2023-03-01T00:14:04;1.70;98.30
6146;DHT22;3104;50.348;7.620;2023-03-01T00:16:41;1.70;97.60
6146;DHT22;3104;50.348;7.620;2023-03-01T00:19:11;1.90;93.30
6146;DHT22;3104;50.348;7.620;2023-03-01T00:21:37;1.40;96.90
6146;DHT22;3104;50.348;7.620;2023-03-01T00:24:03;1.10;98.80
6146;DHT22;3104;50.348;7.620;2023-03-01T00:26:28;1.00;99.90
6146;DHT22;3104;50.348;7.620;2023-03-01T00:28:54;0.90;99.90
6146;DHT22;3104;50.348;7.620;2023-03-01T00:31:25;0.90;99.90
6146;DHT22;3104;50.348;7.620;2023-03-01T00:34:00;0.90;99.90
6146;DHT22;3104;50.348;7.620;2023-03-01T00:36:30;1.00;99.90
6146;DHT22;3104;50.348;7.620;2023-03-01T00:38:56;0.90;99.90
6146;DHT22;3104;50.348;7.620;2023-03-01T00:41:22;1.10;99.90
6146;DHT22;3104;50.348;7.620;2023-03-01T00:43:49;1.10;99.90
6146;DHT22;3104;50.348;7.620;2023-03-01T00:46:17;1.10;99.90
6146;DHT22;3104;50.348;7.620;2023-03-01T00:48:44;1.10;99.90
6146;DHT22;3104;50.348;7.620;2023-03-01T00:51:13;0.90;99.90
6146;DHT22;3104;50.348;7.620;2023-03-01T00:53:39;0.80;99.90
6146;DHT22;3104;50.348;7.620;2023-03-01T00:56:07;0.80;99.90
6146;DHT22;3104;50.348;7.620;2023-03-01T00:58:34;0.80;99.90
6146;DHT22;3104;50.348;7.620;2023-03-01T01:00:59;0.70;99.90
6146;DHT22;3104;50.348;7.620;2023-03-01T01:03:25;0.80;99.90
6146;DHT22;3104;50.348;7.620;2023-03-01T01:05:51;0.90;99.90
6146;DHT22;3104;50.348;7.620;2023-03-01T01:08:18;0.90;99.90
6146;DHT22;3104;50.348;7.620;2023-03-01T01:10:45;0.90;99.90
6146;DHT22;3104;50.348;7.620;2023-03-01T01:13:11;0.90;99.90
6146;DHT22;3104;50.348;7.620;2023-03-01T01:15:36;0.70;99.90
6146;DHT22;3104;50.348;7.620;2023-03-01T01:18:02;0.60;99.90
6146;DHT22;3104;50.348;7.620;2023-03-01T01:20:28;0.60;99.90
6146;DHT22;3104;50.348;7.620;2023-03-01T01:22:54;0.40;99.90
6146;DHT22;3104;50.348;7.620;2023-03-01T01:25:20;0.60;99.90
6146;DHT22;3104;50.348;7.620;2023-03-01T01:27:45;0.70;99.90
6146;DHT22;3104;50.348;7.620;2023-03-01T01:30:11;0.30;99.90
6146;DHT22;3104;50.348;7.620;2023-03-01T01:32:37;0.40;99.90
6146;DHT22;3104;50.348;7.620;2023-03-01T01:35:03;0.40;99.90
6146;DHT22;3104;50.348;7.620;2023-03-01T01:37:28;0.40;99.90
6146;DHT22;3104;50.348;7.620;2023-03-01T01:39:57;0.30;99.90
6146;DHT22;3104;50.348;7.620;2023-03-01T01:42:24;0.40;99.90
6146;DHT22;3104;50.348;7.620;2023-03-01T01:45:28;0.30;99.90
6146;DHT22;3104;50.348;7.620;2023-03-01T01:47:57;0.10;99.90
6146;DHT22;3104;50.348;7.620;2023-03-01T01:50:23;0.20;99.90
6146;DHT22;3104;50.348;7.620;2023-03-01T01:52:51;0.30;99.90
6146;DHT22;3104;50.348;7.620;2023-03-01T01:55:19;0.20;99.90
6146;DHT22;3104;50.348;7.620;2023-03-01T01:58:02;0.30;99.90
6146;DHT22;3104;50.348;7.620;2023-03-01T02:00:29;0.30;99.90
6146;DHT22;3104;50.348;7.620;2023-03-01T02:03:01;0.20;99.90
6146;DHT22;3104;50.348;7.620;2023-03-01T02:08:38;0.20;99.90
6146;DHT22;3104;50.348;7.620;2023-03-01T02:11:05;0.00;99.90
6146;DHT22;3104;50.348;7.620;2023-03-01T02:13:32;-0.20;99.90
6146;DHT22;3104;50.348;7.620;2023-03-01T02:18:27;0.00;99.90
6146;DHT22;3104;50.348;7.620;2023-03-01T02:23:53;0.20;99.90
6146;DHT22;3104;50.348;7.620;2023-03-01T02:26:36;0.20;99.90
6146;DHT22;3104;50.348;7.620;2023-03-01T02:29:03;0.10;99.90
6146;DHT22;3104;50.348;7.620;2023-03-01T02:31:31;0.10;99.90
6146;DHT22;3104;50.348;7.620;2023-03-01T02:34:17;0.20;99.90
6146;DHT22;3104;50.348;7.620;2023-03-01T02:37:08;0.40;99.90
6146;DHT22;3104;50.348;7.620;2023-03-01T02:39:42;0.40;99.90
6146;DHT22;3104;50.348;7.620;2023-03-01T02:42:14;0.40;99.90
6146;DHT22;3104;50.348;7.620;2023-03-01T02:44:41;0.30;99.90
6146;DHT22;3104;50.348;7.620;2023-03-01T02:47:06;0.40;99.90
6146;DHT22;3104;50.348;7.620;2023-03-01T02:49:34;0.30;99.90
6146;DHT22;3104;50.348;7.620;2023-03-01T02:52:14;0.20;99.90
6146;DHT22;3104;50.348;7.620;2023-03-01T02:55:12;0.10;99.90
6146;DHT22;3104;50.348;7.620;2023-03-01T02:57:40;0.10;99.90
6146;DHT22;3104;50.348;7.620;2023-03-01T03:00:32;0.10;99.90
6146;DHT22;3104;50.348;7.620;2023-03-01T03:02:59;0.10;99.90
6146;DHT22;3104;50.348;7.620;2023-03-01T03:05:27;0.00;99.90
6146;DHT22;3104;50.348;7.620;2023-03-01T03:07:53;0.10;99.90
6146;DHT22;3104;50.348;7.620;2023-03-01T03:10:28;0.30;99.90
6146;DHT22;3104;50.348;7.620;2023-03-01T03:13:00;0.10;99.90
6146;DHT22;3104;50.348;7.620;2023-03-01T03:15:26;0.10;99.90
6146;DHT22;3104;50.348;7.620;2023-03-01T03:17:53;0.10;99.90
6146;DHT22;3104;50.348;7.620;2023-03-01T03:20:22;0.20;99.90
6146;DHT22;3104;50.348;7.620;2023-03-01T03:22:50;0.10;99.90
6146;DHT22;3104;50.348;7.620;2023-03-01T03:25:17;-0.10;99.90
6146;DHT22;3104;50.348;7.620;2023-03-01T03:27:45;-0.10;99.90
6146;DHT22;3104;50.348;7.620;2023-03-01T03:30:13;-0.20;99.90
6146;DHT22;3104;50.348;7.620;2023-03-01T03:32:40;0.00;99.90
6146;DHT22;3104;50.348;7.620;2023-03-01T03:35:08;0.00;99.90
6146;DHT22;3104;50.348;7.620;2023-03-01T03:37:40;0.00;99.90
6146;DHT22;3104;50.348;7.620;2023-03-01T03:40:29;0.00;99.90
6146;DHT22;3104;50.348;7.620;2023-03-01T03:42:55;0.00;99.90
6146;DHT22;3104;50.348;7.620;2023-03-01T03:45:21;0.00;99.90
6146;DHT22;3104;50.348;7.620;2023-03-01T03:47:46;0.20;99.90
6146;DHT22;3104;50.348;7.620;2023-03-01T03:50:14;0.10;99.90
6146;DHT22;3104;50.348;7.620;2023-03-01T03:52:40;0.10;99.90
6146;DHT22;3104;50.348;7.620;2023-03-01T03:55:08;0.10;99.90
6146;DHT22;3104;50.348;7.620;2023-03-01T03:57:40;0.10;99.90
6146;DHT22;3104;50.348;7.620;2023-03-01T04:00:08;0.10;99.90
6146;DHT22;3104;50.348;7.620;2023-03-01T04:02:39;0.00;99.90
6146;DHT22;3104;50.348;7.620;2023-03-01T04:05:05;-0.10;99.90
6146;DHT22;3104;50.348;7.620;2023-03-01T04:07:31;-0.20;99.90
6146;DHT22;3104;50.348;7.620;2023-03-01T04:09:57;-0.30;99.90
6146;DHT22;3104;50.348;7.620;2023-03-01T04:12:22;-0.30;99.90
6146;DHT22;3104;50.348;7.620;2023-03-01T04:14:48;-0.10;99.90
6146;DHT22;3104;50.348;7.620;2023-03-01T04:17:14;-0.10;99.90
6146;DHT22;3104;50.348;7.620;2023-03-01T04:19:39;-0.10;99.90
6146;DHT22;3104;50.348;7.620;2023-03-01T04:22:05;-0.20;99.90
6146;DHT22;3104;50.348;7.620;2023-03-01T04:24:35;-0.20;99.90
6146;DHT22;3104;50.348;7.620;2023-03-01T04:27:01;-0.20;99.90
6146;DHT22;3104;50.348;7.620;2023-03-01T04:29:27;-0.40;99.90
6146;DHT22;3104;50.348;7.620;2023-03-01T04:31:53;-0.50;99.90
6146;DHT22;3104;50.348;7.620;2023-03-01T04:34:18;-0.50;99.90
6146;DHT22;3104;50.348;7.620;2023-03-01T04:36:44;-0.50;99.90
6146;DHT22;3104;50.348;7.620;2023-03-01T04:39:09;-0.40;99.90
6146;DHT22;3104;50.348;7.620;2023-03-01T04:41:39;-0.50;99.90
6146;DHT22;3104;50.348;7.620;2023-03-01T04:44:05;-0.60;99.90
6146;DHT22;3104;50.348;7.620;2023-03-01T04:46:31;-0.60;99.90
6146;DHT22;3104;50.348;7.620;2023-03-01T04:48:56;-0.50;99.90
6146;DHT22;3104;50.348;7.620;2023-03-01T04:51:22;-0.60;99.90
6146;DHT22;3104;50.348;7.620;2023-03-01T04:53:48;-0.70;99.90
6146;DHT22;3104;50.348;7.620;2023-03-01T04:56:14;-0.80;99.90
6146;DHT22;3104;50.348;7.620;2023-03-01T04:58:40;-0.80;99.90
6146;DHT22;3104;50.348;7.620;2023-03-01T05:01:11;-0.90;99.90
6146;DHT22;3104;50.348;7.620;2023-03-01T05:03:41;-0.80;99.90
6146;DHT22;3104;50.348;7.620;2023-03-01T05:06:07;-0.80;99.90
6146;DHT22;3104;50.348;7.620;2023-03-01T05:08:33;-0.60;99.90
6146;DHT22;3104;50.348;7.620;2023-03-01T05:10:59;-0.60;99.90
6146;DHT22;3104;50.348;7.620;2023-03-01T05:13:25;-0.70;99.90
6146;DHT22;3104;50.348;7.620;2023-03-01T05:15:59;-0.80;99.90
6146;DHT22;3104;50.348;7.620;2023-03-01T05:18:27;-0.80;99.90
6146;DHT22;3104;50.348;7.620;2023-03-01T05:20:54;-0.90;99.90
6146;DHT22;3104;50.348;7.620;2023-03-01T05:23:22;-1.00;99.90
6146;DHT22;3104;50.348;7.620;2023-03-01T05:25:48;-1.00;99.90
6146;DHT22;3104;50.348;7.620;2023-03-01T05:28:14;-0.80;99.90
6146;DHT22;3104;50.348;7.620;2023-03-01T05:30:40;-0.70;99.90
6146;DHT22;3104;50.348;7.620;2023-03-01T05:33:06;-0.80;99.90
6146;DHT22;3104;50.348;7.620;2023-03-01T05:35:39;-0.70;99.90
6146;DHT22;3104;50.348;7.620;2023-03-01T05:38:04;-0.70;99.90
6146;DHT22;3104;50.348;7.620;2023-03-01T05:40:32;-0.70;99.90
6146;DHT22;3104;50.348;7.620;2023-03-01T05:42:58;-0.80;99.90
6146;DHT22;3104;50.348;7.620;2023-03-01T05:45:25;-0.50;99.90
6146;DHT22;3104;50.348;7.620;2023-03-01T05:47:51;-0.50;99.90
6146;DHT22;3104;50.348;7.620;2023-03-01T05:50:22;-0.70;99.90
6146;DHT22;3104;50.348;7.620;2023-03-01T05:52:59;-0.90;99.90
6146;DHT22;3104;50.348;7.620;2023-03-01T05:55:26;-1.00;99.90
6146;DHT22;3104;50.348;7.620;2023-03-01T05:57:51;-0.90;99.90
6146;DHT22;3104;50.348;7.620;2023-03-01T06:00:19;-0.90;99.90
6146;DHT22;3104;50.348;7.620;2023-03-01T06:02:45;-0.80;99.90
6146;DHT22;3104;50.348;7.620;2023-03-01T06:05:12;-0.90;99.90
6146;DHT22;3104;50.348;7.620;2023-03-01T06:07:38;-1.10;99.90
6146;DHT22;3104;50.348;7.620;2023-03-01T06:10:05;-1.10;99.90
6146;DHT22;3104;50.348;7.620;2023-03-01T06:12:35;-1.10;99.90
6146;DHT22;3104;50.348;7.620;2023-03-01T06:15:01;-1.00;99.90
6146;DHT22;3104;50.348;7.620;2023-03-01T06:17:33;-1.10;99.90
6146;DHT22;3104;50.348;7.620;2023-03-01T06:20:03;-1.10;99.90
6146;DHT22;3104;50.348;7.620;2023-03-01T06:22:29;-1.20;99.90
6146;DHT22;3104;50.348;7.620;2023-03-01T06:24:54;-1.10;99.90
6146;DHT22;3104;50.348;7.620;2023-03-01T06:27:20;-0.90;99.90
6146;DHT22;3104;50.348;7.620;2023-03-01T06:29:46;-0.90;99.90
6146;DHT22;3104;50.348;7.620;2023-03-01T06:32:11;-1.00;99.90
6146;DHT22;3104;50.348;7.620;2023-03-01T06:34:37;-1.20;99.90
6146;DHT22;3104;50.348;7.620;2023-03-01T06:37:02;-1.20;99.90
6146;DHT22;3104;50.348;7.620;2023-03-01T06:39:31;-1.20;99.90
6146;DHT22;3104;50.348;7.620;2023-03-01T06:41:57;-1.10;99.90
6146;DHT22;3104;50.348;7.620;2023-03-01T06:44:23;-1.20;99.90
6146;DHT22;3104;50.348;7.620;2023-03-01T06:46:50;-1.00;99.90
6146;DHT22;3104;50.348;7.620;2023-03-01T06:49:16;-1.00;99.90
6146;DHT22;3104;50.348;7.620;2023-03-01T06:51:43;-1.10;99.90
6146;DHT22;3104;50.348;7.620;2023-03-01T06:54:09;-1.10;99.90
6146;DHT22;3104;50.348;7.620;2023-03-01T06:56:35;-1.00;99.90
6146;DHT22;3104;50.348;7.620;2023-03-01T06:59:01;-0.90;99.90
6146;DHT22;3104;50.348;7.620;2023-03-01T07:01:28;-0.70;99.90
6146;DHT22;3104;50.348;7.620;2023-03-01T07:03:54;-0.70;99.90
6146;DHT22;3104;50.348;7.620;2023-03-01T07:06:20;-0.60;99.90
6146;DHT22;3104;50.348;7.620;2023-03-01T07:08:46;-0.50;99.90
6146;DHT22;3104;50.348;7.620;2023-03-01T07:11:11;-0.60;99.90
6146;DHT22;3104;50.348;7.620;2023-03-01T07:13:37;-0.60;99.90
6146;DHT22;3104;50.348;7.620;2023-03-01T07:16:03;-0.70;99.90
6146;DHT22;3104;50.348;7.620;2023-03-01T07:18:28;-0.90;99.90
6146;DHT22;3104;50.348;7.620;2023-03-01T07:20:54;-0.80;99.90
6146;DHT22;3104;50.348;7.620;2023-03-01T07:23:20;-0.80;99.90
6146;DHT22;3104;50.348;7.620;2023-03-01T07:25:54;-0.50;99.90
6146;DHT22;3104;50.348;7.620;2023-03-01T07:28:22;-0.60;99.90
6146;DHT22;3104;50.348;7.620;2023-03-01T07:30:48;-0.70;99.90
6146;DHT22;3104;50.348;7.620;2023-03-01T07:33:14;-0.70;99.90
6146;DHT22;3104;50.348;7.620;2023-03-01T07:35:39;-0.70;99.90
6146;DHT22;3104;50.348;7.620;2023-03-01T07:38:05;-0.70;99.90
6146;DHT22;3104;50.348;7.620;2023-03-01T07:40:30;-0.50;99.90
6146;DHT22;3104;50.348;7.620;2023-03-01T07:42:57;-0.40;99.90
6146;DHT22;3104;50.348;7.620;2023-03-01T07:45:23;-0.40;99.90
6146;DHT22;3104;50.348;7.620;2023-03-01T07:47:51;-0.40;99.90
6146;DHT22;3104;50.348;7.620;2023-03-01T07:50:16;-0.30;99.90
6146;DHT22;3104;50.348;7.620;2023-03-01T07:52:45;-0.40;99.90
6146;DHT22;3104;50.348;7.620;2023-03-01T07:55:10;-0.40;99.90
6146;DHT22;3104;50.348;7.620;2023-03-01T07:57:36;-0.30;99.90
6146;DHT22;3104;50.348;7.620;2023-03-01T08:00:02;-0.20;99.90
6146;DHT22;3104;50.348;7.620;2023-03-01T08:02:28;-0.10;99.90
6146;DHT22;3104;50.348;7.620;2023-03-01T08:04:53;0.00;99.90
6146;DHT22;3104;50.348;7.620;2023-03-01T08:07:19;0.00;99.90
6146;DHT22;3104;50.348;7.620;2023-03-01T08:09:44;-0.10;99.90
6146;DHT22;3104;50.348;7.620;2023-03-01T08:12:10;-0.20;99.90
6146;DHT22;3104;50.348;7.620;2023-03-01T08:14:35;-0.20;99.90
6146;DHT22;3104;50.348;7.620;2023-03-01T08:17:01;-0.30;99.90
6146;DHT22;3104;50.348;7.620;2023-03-01T08:19:28;-0.10;99.90
6146;DHT22;3104;50.348;7.620;2023-03-01T08:21:54;0.00;99.90
6146;DHT22;3104;50.348;7.620;2023-03-01T08:24:23;0.00;99.90
6146;DHT22;3104;50.348;7.620;2023-03-01T08:26:49;0.20;99.90
6146;DHT22;3104;50.348;7.620;2023-03-01T08:29:14;0.00;99.90
6146;DHT22;3104;50.348;7.620;2023-03-01T08:31:40;0.00;99.90
6146;DHT22;3104;50.348;7.620;2023-03-01T08:34:12;0.10;99.90
6146;DHT22;3104;50.348;7.620;2023-03-01T08:36:40;0.20;99.90
6146;DHT22;3104;50.348;7.620;2023-03-01T08:39:07;0.20;99.90
6146;DHT22;3104;50.348;7.620;2023-03-01T08:41:33;0.20;99.90
6146;DHT22;3104;50.348;7.620;2023-03-01T08:43:59;0.20;99.90
6146;DHT22;3104;50.348;7.620;2023-03-01T08:46:30;0.30;99.90
6146;DHT22;3104;50.348;7.620;2023-03-01T08:48:56;0.20;99.90
6146;DHT22;3104;50.348;7.620;2023-03-01T08:51:23;0.30;99.90
6146;DHT22;3104;50.348;7.620;2023-03-01T08:53:49;0.50;99.90
6146;DHT22;3104;50.348;7.620;2023-03-01T08:56:16;0.50;99.90
6146;DHT22;3104;50.348;7.620;2023-03-01T08:58:46;0.60;99.90
6146;DHT22;3104;50.348;7.620;2023-03-01T09:01:15;0.70;99.90
6146;DHT22;3104;50.348;7.620;2023-03-01T09:03:41;1.00;99.90
6146;DHT22;3104;50.348;7.620;2023-03-01T09:06:07;1.00;99.90
6146;DHT22;3104;50.348;7.620;2023-03-01T09:08:37;1.20;99.90
6146;DHT22;3104;50.348;7.620;2023-03-01T09:11:05;1.40;99.90
6146;DHT22;3104;50.348;7.620;2023-03-01T09:13:31;1.70;99.90
6146;DHT22;3104;50.348;7.620;2023-03-01T09:15:58;1.80;99.90
6146;DHT22;3104;50.348;7.620;2023-03-01T09:18:24;1.80;99.90
6146;DHT22;3104;50.348;7.620;2023-03-01T09:20:50;1.60;99.90
6146;DHT22;3104;50.348;7.620;2023-03-01T09:23:15;1.70;99.90
6146;DHT22;3104;50.348;7.620;2023-03-01T09:25:41;1.80;99.90
6146;DHT22;3104;50.348;7.620;2023-03-01T09:28:06;1.90;99.90
6146;DHT22;3104;50.348;7.620;2023-03-01T09:30:32;2.30;99.90
6146;DHT22;3104;50.348;7.620;2023-03-01T09:32:58;2.80;99.90
6146;DHT22;3104;50.348;7.620;2023-03-01T09:35:23;3.30;99.90
6146;DHT22;3104;50.348;7.620;2023-03-01T09:37:49;4.10;97.80
6146;DHT22;3104;50.348;7.620;2023-03-01T09:40:18;3.80;97.80
6146;DHT22;3104;50.348;7.620;2023-03-01T09:43:05;4.40;95.10
6146;DHT22;3104;50.348;7.620;2023-03-01T09:45:39;4.50;91.60
6146;DHT22;3104;50.348;7.620;2023-03-01T09:48:13;5.20;91.30
6146;DHT22;3104;50.348;7.620;2023-03-01T09:50:43;6.60;65.80
6146;DHT22;3104;50.348;7.620;2023-03-01T09:53:31;6.20;63.80
6146;DHT22;3104;50.348;7.620;2023-03-01T09:58:48;6.50;59.90
6146;DHT22;3104;50.348;7.620;2023-03-01T10:01:33;6.60;56.20
6146;DHT22;3104;50.348;7.620;2023-03-01T10:09:43;6.00;47.90
6146;DHT22;3104;50.348;7.620;2023-03-01T10:12:16;6.30;47.40
6146;DHT22;3104;50.348;7.620;2023-03-01T10:14:51;6.40;43.10
6146;DHT22;3104;50.348;7.620;2023-03-01T10:20:32;6.20;42.30
6146;DHT22;3104;50.348;7.620;2023-03-01T10:22:59;6.00;44.00
6146;DHT22;3104;50.348;7.620;2023-03-01T10:28:25;6.10;51.00
6146;DHT22;3104;50.348;7.620;2023-03-01T10:30:51;7.00;38.80
6146;DHT22;3104;50.348;7.620;2023-03-01T10:33:21;6.40;37.40
6146;DHT22;3104;50.348;7.620;2023-03-01T10:35:48;5.70;43.50
6146;DHT22;3104;50.348;7.620;2023-03-01T10:38:15;6.00;41.00
6146;DHT22;3104;50.348;7.620;2023-03-01T10:40:54;6.30;38.90
6146;DHT22;3104;50.348;7.620;2023-03-01T10:43:23;6.20;36.90
6146;DHT22;3104;50.348;7.620;2023-03-01T10:45:49;6.30;37.70
6146;DHT22;3104;50.348;7.620;2023-03-01T10:48:19;6.70;36.70
6146;DHT22;3104;50.348;7.620;2023-03-01T10:53:40;7.20;30.30
6146;DHT22;3104;50.348;7.620;2023-03-01T10:56:08;7.30;31.90
6146;DHT22;3104;50.348;7.620;2023-03-01T10:58:37;6.70;32.00
6146;DHT22;3104;50.348;7.620;2023-03-01T11:03:42;6.90;32.30
6146;DHT22;3104;50.348;7.620;2023-03-01T11:08:47;6.90;33.50
6146;DHT22;3104;50.348;7.620;2023-03-01T11:11:34;7.30;31.30
6146;DHT22;3104;50.348;7.620;2023-03-01T11:14:04;7.00;30.70
6146;DHT22;3104;50.348;7.620;2023-03-01T11:16:40;7.20;30.30
6146;DHT22;3104;50.348;7.620;2023-03-01T11:21:37;8.00;27.90
6146;DHT22;3104;50.348;7.620;2023-03-01T11:24:09;8.00;27.50
6146;DHT22;3104;50.348;7.620;2023-03-01T11:26:42;7.40;27.80
6146;DHT22;3104;50.348;7.620;2023-03-01T11:29:41;7.30;30.00
6146;DHT22;3104;50.348;7.620;2023-03-01T11:32:11;7.50;30.70
6146;DHT22;3104;50.348;7.620;2023-03-01T11:34:47;7.20;29.40
6146;DHT22;3104;50.348;7.620;2023-03-01T11:39:52;7.10;31.70
6146;DHT22;3104;50.348;7.620;2023-03-01T11:42:25;7.70;28.70
6146;DHT22;3104;50.348;7.620;2023-03-01T11:44:55;7.60;30.70
6146;DHT22;3104;50.348;7.620;2023-03-01T11:47:38;8.20;26.60
6146;DHT22;3104;50.348;7.620;2023-03-01T11:50:42;8.50;25.20
6146;DHT22;3104;50.348;7.620;2023-03-01T11:57:16;7.70;25.40
6146;DHT22;3104;50.348;7.620;2023-03-01T12:29:46;8.40;19.60
6146;DHT22;3104;50.348;7.620;2023-03-01T12:32:23;8.30;20.60
6146;DHT22;3104;50.348;7.620;2023-03-01T12:45:38;7.70;19.30
6146;DHT22;3104;50.348;7.620;2023-03-01T12:48:27;7.80;17.20
6146;DHT22;3104;50.348;7.620;2023-03-01T12:51:01;8.10;17.20
6146;DHT22;3104;50.348;7.620;2023-03-01T12:53:48;8.10;17.60
6146;DHT22;3104;50.348;7.620;2023-03-01T12:56:27;8.20;18.00
6146;DHT22;3104;50.348;7.620;2023-03-01T12:59:59;8.20;18.10
6146;DHT22;3104;50.348;7.620;2023-03-01T13:02:21;8.40;18.00
6146;DHT22;3104;50.348;7.620;2023-03-01T13:08:10;8.20;16.50
6146;DHT22;3104;50.348;7.620;2023-03-01T13:10:50;8.50;15.70
6146;DHT22;3104;50.348;7.620;2023-03-01T13:13:25;8.20;16.60
6146;DHT22;3104;50.348;7.620;2023-03-01T13:15:51;8.40;13.00
6146;DHT22;3104;50.348;7.620;2023-03-01T13:23:48;8.40;13.70
6146;DHT22;3104;50.348;7.620;2023-03-01T13:26:18;8.60;12.40
6146;DHT22;3104;50.348;7.620;2023-03-01T13:33:59;9.20;9.10
6146;DHT22;3104;50.348;7.620;2023-03-01T13:38:58;9.10;9.90
6146;DHT22;3104;50.348;7.620;2023-03-01T13:52:43;9.20;7.00
6146;DHT22;3104;50.348;7.620;2023-03-01T13:55:36;8.90;5.10
6146;DHT22;3104;50.348;7.620;2023-03-01T13:58:14;8.70;4.60
6146;DHT22;3104;50.348;7.620;2023-03-01T14:00:40;9.00;6.20
6146;DHT22;3104;50.348;7.620;2023-03-01T14:03:15;8.80;3.70
6146;DHT22;3104;50.348;7.620;2023-03-01T14:05:56;8.70;3.50
6146;DHT22;3104;50.348;7.620;2023-03-01T14:08:24;8.80;4.70
6146;DHT22;3104;50.348;7.620;2023-03-01T14:14:07;8.70;2.50
6146;DHT22;3104;50.348;7.620;2023-03-01T14:21:41;8.70;3.40
6146;DHT22;3104;50.348;7.620;2023-03-01T14:24:20;8.60;3.40
6146;DHT22;3104;50.348;7.620;2023-03-01T14:26:46;8.70;4.50
6146;DHT22;3104;50.348;7.620;2023-03-01T14:29:45;8.60;3.30
6146;DHT22;3104;50.348;7.620;2023-03-01T14:32:22;8.50;4.50
6146;DHT22;3104;50.348;7.620;2023-03-01T14:34:50;8.80;4.50
6146;DHT22;3104;50.348;7.620;2023-03-01T14:37:32;8.80;4.60
6146;DHT22;3104;50.348;7.620;2023-03-01T14:39:59;9.00;4.90
6146;DHT22;3104;50.348;7.620;2023-03-01T14:42:29;8.90;4.00
6146;DHT22;3104;50.348;7.620;2023-03-01T14:44:57;9.10;4.20
6146;DHT22;3104;50.348;7.620;2023-03-01T14:47:29;9.10;3.80
6146;DHT22;3104;50.348;7.620;2023-03-01T14:50:09;9.00;3.30
6146;DHT22;3104;50.348;7.620;2023-03-01T14:52:42;8.90;3.60
6146;DHT22;3104;50.348;7.620;2023-03-01T14:55:37;8.90;4.20
6146;DHT22;3104;50.348;7.620;2023-03-01T14:58:05;9.10;5.40
6146;DHT22;3104;50.348;7.620;2023-03-01T15:00:33;9.00;4.70
6146;DHT22;3104;50.348;7.620;2023-03-01T15:03:14;8.90;3.70
6146;DHT22;3104;50.348;7.620;2023-03-01T15:05:44;9.10;4.80
6146;DHT22;3104;50.348;7.620;2023-03-01T15:08:19;9.10;4.80
6146;DHT22;3104;50.348;7.620;2023-03-01T15:10:57;9.20;5.60
6146;DHT22;3104;50.348;7.620;2023-03-01T15:13:25;9.00;4.60
6146;DHT22;3104;50.348;7.620;2023-03-01T15:15:53;9.00;5.20
6146;DHT22;3104;50.348;7.620;2023-03-01T15:18:27;8.90;4.30
6146;DHT22;3104;50.348;7.620;2023-03-01T15:20:54;8.70;5.20
6146;DHT22;3104;50.348;7.620;2023-03-01T15:23:27;8.80;5.50
6146;DHT22;3104;50.348;7.620;2023-03-01T15:25:55;8.90;5.20
6146;DHT22;3104;50.348;7.620;2023-03-01T15:28:42;8.90;3.60
6146;DHT22;3104;50.348;7.620;2023-03-01T15:33:42;8.90;1.90
6146;DHT22;3104;50.348;7.620;2023-03-01T15:38:59;8.50;2.50
6146;DHT22;3104;50.348;7.620;2023-03-01T15:41:30;8.60;4.00
6146;DHT22;3104;50.348;7.620;2023-03-01T15:43:58;8.70;2.30
6146;DHT22;3104;50.348;7.620;2023-03-01T15:46:32;8.70;3.00
6146;DHT22;3104;50.348;7.620;2023-03-01T15:49:02;8.50;1.50
6146;DHT22;3104;50.348;7.620;2023-03-01T15:51:36;8.50;2.00
6146;DHT22;3104;50.348;7.620;2023-03-01T15:54:17;8.60;2.30
6146;DHT22;3104;50.348;7.620;2023-03-01T15:56:44;8.60;1.90
6146;DHT22;3104;50.348;7.620;2023-03-01T15:59:11;8.50;1.00
6146;DHT22;3104;50.348;7.620;2023-03-01T16:01:40;8.30;1.00
6146;DHT22;3104;50.348;7.620;2023-03-01T16:04:06;8.40;1.00
6146;DHT22;3104;50.348;7.620;2023-03-01T16:06:32;8.40;1.00
6146;DHT22;3104;50.348;7.620;2023-03-01T16:08:57;8.40;1.00
6146;DHT22;3104;50.348;7.620;2023-03-01T16:11:23;8.30;1.00
6146;DHT22;3104;50.348;7.620;2023-03-01T16:13:48;8.20;1.00
6146;DHT22;3104;50.348;7.620;2023-03-01T16:16:15;8.30;1.00
6146;DHT22;3104;50.348;7.620;2023-03-01T16:18:45;8.50;1.20
6146;DHT22;3104;50.348;7.620;2023-03-01T16:21:22;8.30;1.00
6146;DHT22;3104;50.348;7.620;2023-03-01T16:23:48;8.40;1.00
6146;DHT22;3104;50.348;7.620;2023-03-01T16:26:15;8.20;1.00
6146;DHT22;3104;50.348;7.620;2023-03-01T16:28:41;8.10;1.00
6146;DHT22;3104;50.348;7.620;2023-03-01T16:31:07;8.40;1.00
6146;DHT22;3104;50.348;7.620;2023-03-01T16:33:33;8.40;1.00
6146;DHT22;3104;50.348;7.620;2023-03-01T16:36:00;8.30;1.30
6146;DHT22;3104;50.348;7.620;2023-03-01T16:38:27;8.30;1.20
6146;DHT22;3104;50.348;7.620;2023-03-01T16:40:53;8.10;1.60
6146;DHT22;3104;50.348;7.620;2023-03-01T16:43:19;7.90;1.70
6146;DHT22;3104;50.348;7.620;2023-03-01T16:45:44;7.90;2.30
6146;DHT22;3104;50.348;7.620;2023-03-01T16:48:12;7.80;2.40
6146;DHT22;3104;50.348;7.620;2023-03-01T16:50:38;7.60;2.50
6146;DHT22;3104;50.348;7.620;2023-03-01T16:53:03;7.40;2.00
6146;DHT22;3104;50.348;7.620;2023-03-01T16:55:29;7.40;2.60
6146;DHT22;3104;50.348;7.620;2023-03-01T16:57:55;7.30;3.50
6146;DHT22;3104;50.348;7.620;2023-03-01T17:00:20;7.20;4.00
6146;DHT22;3104;50.348;7.620;2023-03-01T17:02:47;7.20;4.40
6146;DHT22;3104;50.348;7.620;2023-03-01T17:05:13;7.10;4.70
6146;DHT22;3104;50.348;7.620;2023-03-01T17:07:39;7.10;5.50
6146;DHT22;3104;50.348;7.620;2023-03-01T17:10:07;7.00;5.70
6146;DHT22;3104;50.348;7.620;2023-03-01T17:12:34;6.90;6.20
6146;DHT22;3104;50.348;7.620;2023-03-01T17:14:59;6.80;6.80
6146;DHT22;3104;50.348;7.620;2023-03-01T17:17:26;6.70;7.90
6146;DHT22;3104;50.348;7.620;2023-03-01T17:19:52;6.70;8.30
6146;DHT22;3104;50.348;7.620;2023-03-01T17:22:18;6.70;8.70
6146;DHT22;3104;50.348;7.620;2023-03-01T17:24:44;6.70;9.50
6146;DHT22;3104;50.348;7.620;2023-03-01T17:27:10;6.70;9.50
6146;DHT22;3104;50.348;7.620;2023-03-01T17:29:37;6.50;10.30
6146;DHT22;3104;50.348;7.620;2023-03-01T17:32:04;6.40;10.80
6146;DHT22;3104;50.348;7.620;2023-03-01T17:34:31;6.30;12.50
6146;DHT22;3104;50.348;7.620;2023-03-01T17:36:56;6.30;12.90
6146;DHT22;3104;50.348;7.620;2023-03-01T17:39:22;6.20;12.00
6146;DHT22;3104;50.348;7.620;2023-03-01T17:41:52;6.20;12.20
6146;DHT22;3104;50.348;7.620;2023-03-01T17:44:18;6.20;12.30
6146;DHT22;3104;50.348;7.620;2023-03-01T17:46:44;6.20;12.70
6146;DHT22;3104;50.348;7.620;2023-03-01T17:49:09;6.20;13.20
6146;DHT22;3104;50.348;7.620;2023-03-01T17:51:35;6.10;13.30
6146;DHT22;3104;50.348;7.620;2023-03-01T17:54:01;6.00;13.50
6146;DHT22;3104;50.348;7.620;2023-03-01T17:56:27;5.90;13.10
6146;DHT22;3104;50.348;7.620;2023-03-01T17:58:52;6.00;13.70
6146;DHT22;3104;50.348;7.620;2023-03-01T18:01:20;6.10;13.60
6146;DHT22;3104;50.348;7.620;2023-03-01T18:03:46;6.20;13.40
6146;DHT22;3104;50.348;7.620;2023-03-01T18:06:17;6.00;13.40
6146;DHT22;3104;50.348;7.620;2023-03-01T18:08:44;6.00;14.70
6146;DHT22;3104;50.348;7.620;2023-03-01T18:11:14;6.10;15.50
6146;DHT22;3104;50.348;7.620;2023-03-01T18:13:39;6.10;15.10
6146;DHT22;3104;50.348;7.620;2023-03-01T18:16:11;5.80;13.60
6146;DHT22;3104;50.348;7.620;2023-03-01T18:18:38;5.80;14.30
6146;DHT22;3104;50.348;7.620;2023-03-01T18:21:04;5.80;15.40
6146;DHT22;3104;50.348;7.620;2023-03-01T18:23:31;5.80;14.00
6146;DHT22;3104;50.348;7.620;2023-03-01T18:26:01;5.80;15.20
6146;DHT22;3104;50.348;7.620;2023-03-01T18:28:29;5.70;14.60
6146;DHT22;3104;50.348;7.620;2023-03-01T18:31:00;5.50;15.60
6146;DHT22;3104;50.348;7.620;2023-03-01T18:33:28;5.50;15.10